createdAt,value
2023-01-28T00:01:08.672Z,101445.59
2023-01-28T00:03:36.506Z,101446.16
2023-01-28T00:06:05.228Z,101443.25
2023-01-28T00:08:34.746Z,101449.72
2023-01-28T00:11:03.119Z,101444.44
2023-01-28T00:13:32.099Z,101440.97
2023-01-28T00:16:02.161Z,101444.56
2023-01-28T00:18:30.731Z,101442.13
2023-01-28T00:20:59.831Z,101440.44
2023-01-28T00:23:28.710Z,101441.53
2023-01-28T00:25:59.741Z,101438.56
2023-01-28T00:28:27.976Z,101441.53
2023-01-28T00:30:55.746Z,101433.84
2023-01-28T00:33:25.612Z,101438.91
2023-01-28T00:35:59.922Z,101431.88
2023-01-28T00:38:27.700Z,101432.91
2023-01-28T00:40:57.011Z,101430.66
2023-01-28T00:43:24.913Z,101426.16
2023-01-28T00:45:52.614Z,101425.75
2023-01-28T00:48:20.345Z,101430.16
2023-01-28T00:50:48.053Z,101424.66
2023-01-28T00:53:15.692Z,101434.03
2023-01-28T00:55:43.411Z,101430.75
2023-01-28T00:58:12.602Z,101439.41
2023-01-28T01:00:40.308Z,101428.38
2023-01-28T01:03:07.979Z,101437.69
2023-01-28T01:05:36.136Z,101428.66
2023-01-28T01:08:03.942Z,101434.00
2023-01-28T01:10:31.675Z,101429.44
2023-01-28T01:12:59.415Z,101428.28
2023-01-28T01:15:28.626Z,101432.97
2023-01-28T01:17:57.176Z,101447.94
2023-01-28T01:20:27.004Z,101437.22
2023-01-28T01:22:55.271Z,101435.13
2023-01-28T01:25:23.062Z,101438.34
2023-01-28T01:27:51.427Z,101445.31
2023-01-28T01:30:19.350Z,101452.44
2023-01-28T01:32:48.444Z,101449.22
2023-01-28T01:35:16.600Z,101446.59
2023-01-28T01:37:45.473Z,101431.56
2023-01-28T01:40:13.727Z,101444.81
2023-01-28T01:42:41.926Z,101444.44
2023-01-28T01:45:14.818Z,101445.88
2023-01-28T01:47:47.376Z,101452.09
2023-01-28T01:50:24.424Z,101450.88
2023-01-28T01:52:55.948Z,101453.41
2023-01-28T01:55:26.779Z,101458.88
2023-01-28T01:57:59.209Z,101453.69
2023-01-28T02:00:27.085Z,101456.88
2023-01-28T02:02:56.715Z,101458.50
2023-01-28T02:05:26.177Z,101458.28
2023-01-28T02:08:17.131Z,101458.69
2023-01-28T02:10:45.984Z,101455.75
2023-01-28T02:13:15.949Z,101449.84
2023-01-28T02:15:45.062Z,101456.69
2023-01-28T02:18:13.021Z,101466.19
2023-01-28T02:21:02.502Z,101457.47
2023-01-28T02:23:46.704Z,101464.72
2023-01-28T02:26:30.111Z,101461.66
2023-01-28T02:29:06.715Z,101472.63
2023-01-28T02:31:39.805Z,101468.59
2023-01-28T02:34:14.111Z,101470.47
2023-01-28T02:36:47.019Z,101466.44
2023-01-28T02:39:19.690Z,101467.75
2023-01-28T02:41:54.536Z,101472.75
2023-01-28T02:44:23.697Z,101468.44
2023-01-28T02:47:11.351Z,101471.25
2023-01-28T02:49:44.249Z,101475.28
2023-01-28T02:52:44.855Z,101470.50
2023-01-28T02:55:18.886Z,101472.00
2023-01-28T02:57:56.277Z,101469.53
2023-01-28T03:00:32.231Z,101473.69
2023-01-28T03:03:10.241Z,101469.84
2023-01-28T03:06:03.491Z,101476.50
2023-01-28T03:08:54.052Z,101478.88
2023-01-28T03:11:40.495Z,101474.16
2023-01-28T03:14:27.042Z,101473.50
2023-01-28T03:17:18.331Z,101477.44
2023-01-28T03:20:04.016Z,101486.09
2023-01-28T03:22:52.824Z,101476.97
2023-01-28T03:25:42.245Z,101486.47
2023-01-28T03:28:31.305Z,101480.75
2023-01-28T03:31:23.842Z,101484.31
2023-01-28T03:34:13.500Z,101475.31
2023-01-28T03:36:51.501Z,101489.91
2023-01-28T03:39:20.636Z,101491.59
2023-01-28T03:41:59.552Z,101488.88
2023-01-28T03:44:45.393Z,101492.34
2023-01-28T03:47:13.419Z,101499.09
2023-01-28T03:49:45.559Z,101503.53
2023-01-28T03:52:13.997Z,101501.56
2023-01-28T03:54:41.659Z,101504.34
2023-01-28T03:57:09.427Z,101509.47
2023-01-28T03:59:37.109Z,101506.88
2023-01-28T04:02:05.756Z,101509.94
2023-01-28T04:04:33.474Z,101509.09
2023-01-28T04:07:02.572Z,101510.97
2023-01-28T04:09:30.224Z,101514.34
2023-01-28T04:11:58.081Z,101503.16
2023-01-28T04:14:25.744Z,101504.00
2023-01-28T04:16:54.895Z,101506.22
2023-01-28T04:19:23.687Z,101506.69
2023-01-28T04:21:53.877Z,101503.59
2023-01-28T04:24:23.889Z,101501.22
2023-01-28T04:26:51.611Z,101499.03
2023-01-28T04:29:19.358Z,101497.25
2023-01-28T04:31:47.356Z,101501.09
2023-01-28T04:34:15.194Z,101502.50
2023-01-28T04:36:42.900Z,101505.78
2023-01-28T04:39:10.612Z,101505.78
2023-01-28T04:41:39.667Z,101509.00
2023-01-28T04:44:07.623Z,101504.31
2023-01-28T04:46:35.386Z,101508.06
2023-01-28T04:49:03.606Z,101506.38
2023-01-28T04:51:31.377Z,101514.72
2023-01-28T04:53:59.157Z,101515.91
2023-01-28T04:56:26.863Z,101510.19
2023-01-28T04:58:55.948Z,101504.63
2023-01-28T05:01:24.640Z,101512.03
2023-01-28T05:03:52.737Z,101509.63
2023-01-28T05:06:20.398Z,101518.50
2023-01-28T05:08:48.114Z,101514.81
2023-01-28T05:11:15.952Z,101518.03
2023-01-28T05:13:43.661Z,101521.75
2023-01-28T05:16:12.997Z,101522.59
2023-01-28T05:18:40.669Z,101525.06
2023-01-28T05:21:08.670Z,101528.09
2023-01-28T05:23:36.543Z,101530.72
2023-01-28T05:26:04.277Z,101531.38
2023-01-28T05:28:31.968Z,101531.28
2023-01-28T05:31:05.213Z,101534.50
2023-01-28T05:33:34.792Z,101532.94
2023-01-28T05:36:02.514Z,101540.72
2023-01-28T05:38:30.276Z,101539.19
2023-01-28T05:40:57.967Z,101547.84
2023-01-28T05:43:25.785Z,101560.91
2023-01-28T05:45:53.540Z,101553.25
2023-01-28T05:48:21.277Z,101561.75
2023-01-28T05:50:50.699Z,101561.69
2023-01-28T05:53:18.414Z,101558.38
2023-01-28T05:55:49.811Z,101558.91
2023-01-28T05:58:17.677Z,101557.88
2023-01-28T06:00:45.456Z,101568.06
2023-01-28T06:03:13.728Z,101565.91
2023-01-28T06:05:41.405Z,101571.09
2023-01-28T06:08:10.477Z,101581.28
2023-01-28T06:10:38.133Z,101578.91
2023-01-28T06:13:05.829Z,101581.78
2023-01-28T06:15:33.758Z,101585.00
2023-01-28T06:18:01.664Z,101588.22
2023-01-28T06:20:29.395Z,101588.78
2023-01-28T06:22:57.567Z,101594.16
2023-01-28T06:25:26.726Z,101593.13
2023-01-28T06:27:54.420Z,101590.50
2023-01-28T06:30:23.614Z,101597.84
2023-01-28T06:32:55.711Z,101610.84
2023-01-28T06:35:23.651Z,101601.00
2023-01-28T06:37:52.493Z,101608.75
2023-01-28T06:40:21.978Z,101617.56
2023-01-28T06:42:51.106Z,101620.97
2023-01-28T06:45:18.832Z,101616.28
2023-01-28T06:47:46.633Z,101621.28
2023-01-28T06:50:14.594Z,101628.06
2023-01-28T06:52:42.851Z,101621.69
2023-01-28T06:55:10.894Z,101631.94
2023-01-28T06:57:39.795Z,101629.09
2023-01-28T07:00:13.619Z,101631.97
2023-01-28T07:02:41.653Z,101631.03
2023-01-28T07:05:09.986Z,101627.66
2023-01-28T07:07:42.027Z,101634.69
2023-01-28T07:10:11.249Z,101632.25
2023-01-28T07:12:38.981Z,101638.94
2023-01-28T07:15:13.161Z,101638.66
2023-01-28T07:17:41.447Z,101640.19
2023-01-28T07:20:11.983Z,101636.47
2023-01-28T07:22:41.429Z,101640.28
2023-01-28T07:25:10.333Z,101641.66
2023-01-28T07:27:38.027Z,101649.97
2023-01-28T07:30:06.877Z,101639.28
2023-01-28T07:32:35.876Z,101638.00
2023-01-28T07:35:03.535Z,101641.84
2023-01-28T07:37:31.345Z,101636.34
2023-01-28T07:39:59.117Z,101642.34
2023-01-28T07:42:26.824Z,101648.97
2023-01-28T07:44:54.627Z,101651.91
2023-01-28T07:47:22.454Z,101643.88
2023-01-28T07:49:51.596Z,101649.47
2023-01-28T07:52:19.424Z,101649.66
2023-01-28T07:54:47.199Z,101649.28
2023-01-28T07:57:14.889Z,101663.53
2023-01-28T07:59:42.624Z,101649.09
2023-01-28T08:02:13.340Z,101653.88
2023-01-28T08:04:41.537Z,101660.75
2023-01-28T08:07:10.945Z,101668.28
2023-01-28T08:09:38.594Z,101658.63
2023-01-28T08:12:06.425Z,101671.94
2023-01-28T08:14:34.128Z,101675.59
2023-01-28T08:17:01.890Z,101674.75
2023-01-28T08:19:29.627Z,101674.56
2023-01-28T08:21:57.306Z,101678.81
2023-01-28T08:24:26.440Z,101672.19
2023-01-28T08:26:54.081Z,101677.09
2023-01-28T08:29:21.930Z,101685.41
2023-01-28T08:31:49.753Z,101678.72
2023-01-28T08:34:17.482Z,101682.13
2023-01-28T08:36:45.518Z,101685.38
2023-01-28T08:39:13.189Z,101680.59
2023-01-28T08:41:42.339Z,101687.13
2023-01-28T08:44:10.127Z,101679.38
2023-01-28T08:46:37.950Z,101680.84
2023-01-28T08:49:05.860Z,101681.53
2023-01-28T08:51:33.609Z,101686.13
2023-01-28T08:54:02.145Z,101676.19
2023-01-28T08:56:30.499Z,101688.13
2023-01-28T08:58:59.634Z,101682.28
2023-01-28T09:01:29.349Z,101678.78
2023-01-28T09:03:57.229Z,101682.25
2023-01-28T09:06:25.067Z,101675.22
2023-01-28T09:08:52.804Z,101677.44
2023-01-28T09:11:20.492Z,101681.53
2023-01-28T09:13:48.226Z,101677.00
2023-01-28T09:16:17.300Z,101694.16
2023-01-28T09:18:45.157Z,101690.03
2023-01-28T09:21:12.930Z,101688.06
2023-01-28T09:23:40.826Z,101702.22
2023-01-28T09:26:10.286Z,101696.97
2023-01-28T09:28:38.522Z,101700.06
2023-01-28T09:31:08.530Z,101704.31
2023-01-28T09:33:38.871Z,101716.06
2023-01-28T09:36:09.310Z,101712.47
2023-01-28T09:38:37.119Z,101714.75
2023-01-28T09:41:20.398Z,101712.72
2023-01-28T09:44:11.103Z,101717.88
2023-01-28T09:46:39.402Z,101722.47
2023-01-28T09:49:22.197Z,101714.28
2023-01-28T09:51:53.588Z,101724.25
2023-01-28T09:54:41.362Z,101717.38
2023-01-28T09:57:15.032Z,101718.22
2023-01-28T09:59:42.724Z,101715.03
2023-01-28T10:02:32.999Z,101721.63
2023-01-28T10:05:17.410Z,101714.88
2023-01-28T10:07:56.192Z,101716.56
2023-01-28T10:10:29.456Z,101718.75
2023-01-28T10:13:12.860Z,101719.00
2023-01-28T10:15:58.004Z,101728.19
2023-01-28T10:18:36.860Z,101733.66
2023-01-28T10:21:13.460Z,101725.16
2023-01-28T10:23:49.511Z,101715.97
2023-01-28T10:26:24.801Z,101732.88
2023-01-28T10:28:57.321Z,101736.38
2023-01-28T10:31:32.512Z,101736.44
2023-01-28T10:34:01.330Z,101737.03
2023-01-28T10:36:31.163Z,101734.75
2023-01-28T10:38:59.361Z,101745.53
2023-01-28T10:41:27.411Z,101738.47
2023-01-28T10:43:55.074Z,101747.38
2023-01-28T10:46:27.756Z,101746.69
2023-01-28T10:49:01.047Z,101748.41
2023-01-28T10:51:35.250Z,101741.88
2023-01-28T10:54:03.220Z,101745.16
2023-01-28T10:56:33.125Z,101749.13
2023-01-28T10:59:04.645Z,101746.50
2023-01-28T11:01:45.175Z,101743.81
2023-01-28T11:04:20.190Z,101745.88
2023-01-28T11:07:01.973Z,101754.34
2023-01-28T11:09:31.498Z,101754.34
2023-01-28T11:12:00.106Z,101754.59
2023-01-28T11:14:28.894Z,101743.13
2023-01-28T11:16:59.296Z,101751.75
2023-01-28T11:19:35.033Z,101752.91
2023-01-28T11:22:04.565Z,101761.13
2023-01-28T11:24:34.973Z,101750.66
2023-01-28T11:27:14.530Z,101757.19
2023-01-28T11:29:42.912Z,101757.09
2023-01-28T11:32:20.008Z,101740.69
2023-01-28T11:34:52.565Z,101742.41
2023-01-28T11:37:25.043Z,101747.88
2023-01-28T11:40:02.849Z,101744.84
2023-01-28T11:42:32.206Z,101744.59
2023-01-28T11:44:59.953Z,101744.31
2023-01-28T11:47:48.194Z,101741.91
2023-01-28T11:50:24.028Z,101740.34
2023-01-28T11:53:10.547Z,101725.59
2023-01-28T11:55:55.466Z,101729.91
2023-01-28T11:58:29.803Z,101734.13
2023-01-28T12:01:04.095Z,101726.34
2023-01-28T12:03:51.546Z,101728.44
2023-01-28T12:06:41.777Z,101723.25
2023-01-28T12:09:21.198Z,101722.63
2023-01-28T12:12:13.129Z,101720.66
2023-01-28T12:15:00.813Z,101723.38
2023-01-28T12:17:41.935Z,101719.34
2023-01-28T12:20:19.977Z,101718.69
2023-01-28T12:23:20.189Z,101721.03
2023-01-28T12:26:06.253Z,101720.47
2023-01-28T12:28:45.672Z,101725.56
2023-01-28T12:31:37.575Z,101714.63
2023-01-28T12:35:04.130Z,101712.00
2023-01-28T12:37:44.752Z,101710.47
2023-01-28T12:40:26.640Z,101712.94
2023-01-28T12:43:02.697Z,101715.84
2023-01-28T12:45:38.793Z,101710.66
2023-01-28T12:48:11.331Z,101709.72
2023-01-28T12:50:45.196Z,101707.19
2023-01-28T12:53:23.453Z,101707.66
2023-01-28T12:55:59.555Z,101709.16
2023-01-28T12:58:38.326Z,101703.13
2023-01-28T13:01:12.076Z,101704.16
2023-01-28T13:03:44.727Z,101705.31
2023-01-28T13:06:18.195Z,101702.09
2023-01-28T13:08:46.167Z,101705.03
2023-01-28T13:11:18.143Z,101703.50
2023-01-28T13:13:48.176Z,101706.03
2023-01-28T13:16:17.881Z,101707.81
2023-01-28T13:18:47.366Z,101702.16
2023-01-28T13:21:18.960Z,101703.50
2023-01-28T13:23:48.426Z,101703.47
2023-01-28T13:26:37.508Z,101715.34
2023-01-28T13:29:20.112Z,101719.28
2023-01-28T13:31:52.154Z,101715.69
2023-01-28T13:34:37.970Z,101715.88
2023-01-28T13:37:22.415Z,101725.94
2023-01-28T13:39:53.295Z,101729.75
2023-01-28T13:42:27.155Z,101729.13
2023-01-28T13:44:57.203Z,101743.06
2023-01-28T13:47:31.356Z,101740.66
2023-01-28T13:50:03.763Z,101755.69
2023-01-28T13:52:33.889Z,101757.75
2023-01-28T13:55:05.039Z,101752.81
2023-01-28T13:58:14.231Z,101757.91
2023-01-28T14:01:01.722Z,101767.97
2023-01-28T14:03:55.907Z,101766.75
2023-01-28T14:07:02.444Z,101766.84
2023-01-28T14:09:54.308Z,101780.75
2023-01-28T14:12:59.100Z,101774.97
2023-01-28T14:15:51.866Z,101768.63
2023-01-28T14:18:27.272Z,101773.72
2023-01-28T14:20:57.267Z,101776.25
2023-01-28T14:23:26.829Z,101779.34
2023-01-28T14:26:06.820Z,101784.25
2023-01-28T14:28:47.353Z,101778.28
2023-01-28T14:31:23.147Z,101788.47
2023-01-28T14:33:51.016Z,101787.63
2023-01-28T14:36:18.859Z,101792.91
2023-01-28T14:38:48.144Z,101798.00
2023-01-28T14:41:24.584Z,101796.50
2023-01-28T14:43:54.099Z,101793.41
2023-01-28T14:46:32.337Z,101798.59
2023-01-28T14:49:16.436Z,101788.47
2023-01-28T14:52:06.625Z,101794.69
2023-01-28T14:54:47.962Z,101795.88
2023-01-28T14:57:45.729Z,101809.69
2023-01-28T15:00:24.228Z,101803.75
2023-01-28T15:02:53.500Z,101807.69
2023-01-28T15:05:23.816Z,101813.59
2023-01-28T15:07:52.048Z,101809.19
2023-01-28T15:10:22.264Z,101818.34
2023-01-28T15:12:55.040Z,101810.50
2023-01-28T15:15:29.943Z,101814.31
2023-01-28T15:18:03.459Z,101801.16
2023-01-28T15:20:32.023Z,101808.31
2023-01-28T15:23:02.204Z,101801.19
2023-01-28T15:25:31.211Z,101792.97
2023-01-28T15:28:01.863Z,101780.66
2023-01-28T15:30:31.398Z,101786.53
2023-01-28T15:33:02.856Z,101785.44
2023-01-28T15:35:31.273Z,101788.84
2023-01-28T15:37:59.552Z,101786.63
2023-01-28T15:40:27.661Z,101786.28
2023-01-28T15:42:58.385Z,101789.69
2023-01-28T15:45:28.996Z,101796.88
2023-01-28T15:48:09.216Z,101798.66
2023-01-28T15:50:38.323Z,101798.78
2023-01-28T15:53:11.103Z,101809.72
2023-01-28T15:55:41.506Z,101801.00
2023-01-28T15:58:20.773Z,101801.47
2023-01-28T16:00:49.214Z,101797.06
2023-01-28T16:03:23.372Z,101795.47
2023-01-28T16:06:01.231Z,101802.41
2023-01-28T16:08:33.327Z,101790.38
2023-01-28T16:11:01.243Z,101801.69
2023-01-28T16:13:32.438Z,101804.72
2023-01-28T16:16:02.210Z,101800.25
2023-01-28T16:18:40.785Z,101807.91
2023-01-28T16:21:12.968Z,101806.22
2023-01-28T16:23:41.105Z,101811.47
2023-01-28T16:26:22.608Z,101821.59
2023-01-28T16:28:50.326Z,101818.44
2023-01-28T16:31:18.404Z,101835.06
2023-01-28T16:33:47.741Z,101832.19
2023-01-28T16:36:16.926Z,101832.94
2023-01-28T16:38:44.741Z,101830.84
2023-01-28T16:41:25.943Z,101829.16
2023-01-28T16:43:53.755Z,101823.72
2023-01-28T16:46:21.859Z,101831.53
2023-01-28T16:48:50.922Z,101823.13
2023-01-28T16:51:19.447Z,101830.59
2023-01-28T16:53:48.689Z,101830.81
2023-01-28T16:56:35.843Z,101831.56
2023-01-28T16:59:03.794Z,101842.22
2023-01-28T17:01:31.532Z,101844.56
2023-01-28T17:04:00.646Z,101840.25
2023-01-28T17:06:28.337Z,101840.47
2023-01-28T17:08:56.057Z,101844.56
2023-01-28T17:11:23.704Z,101832.34
2023-01-28T17:13:51.337Z,101840.16
2023-01-28T17:16:19.057Z,101851.88
2023-01-28T17:18:50.934Z,101845.78
2023-01-28T17:21:20.235Z,101851.28
2023-01-28T17:23:48.321Z,101842.13
2023-01-28T17:26:17.310Z,101852.19
2023-01-28T17:28:45.539Z,101853.09
2023-01-28T17:31:15.136Z,101852.44
2023-01-28T17:33:43.057Z,101853.09
2023-01-28T17:36:11.305Z,101856.50
2023-01-28T17:38:40.382Z,101852.25
2023-01-28T17:41:09.906Z,101859.06
2023-01-28T17:43:37.605Z,101871.38
2023-01-28T17:46:11.952Z,101874.66
2023-01-28T17:48:39.870Z,101875.78
2023-01-28T17:51:07.884Z,101878.25
2023-01-28T17:53:35.641Z,101887.94
2023-01-28T17:56:05.280Z,101891.22
2023-01-28T17:58:33.005Z,101891.97
2023-01-28T18:01:00.787Z,101888.41
2023-01-28T18:03:28.571Z,101881.13
2023-01-28T18:06:00.320Z,101884.44
2023-01-28T18:08:28.078Z,101890.56
2023-01-28T18:10:56.178Z,101881.13
2023-01-28T18:13:25.299Z,101891.03
2023-01-28T18:15:53.012Z,101880.81
2023-01-28T18:18:20.702Z,101886.31
2023-01-28T18:20:57.896Z,101895.47
2023-01-28T18:23:25.778Z,101885.78
2023-01-28T18:25:56.832Z,101898.56
2023-01-28T18:28:26.231Z,101894.16
2023-01-28T18:30:54.257Z,101904.66
2023-01-28T18:33:24.233Z,101897.06
2023-01-28T18:35:52.067Z,101897.78
2023-01-28T18:38:19.807Z,101902.44
2023-01-28T18:40:47.945Z,101897.16
2023-01-28T18:43:15.746Z,101903.34
2023-01-28T18:45:45.787Z,101894.31
2023-01-28T18:48:13.531Z,101908.22
2023-01-28T18:50:41.314Z,101902.78
2023-01-28T18:53:09.022Z,101903.50
2023-01-28T18:55:36.705Z,101906.28
2023-01-28T18:58:04.391Z,101905.41
2023-01-28T19:00:32.055Z,101922.91
2023-01-28T19:03:02.243Z,101927.22
2023-01-28T19:05:30.558Z,101936.03
2023-01-28T19:07:58.739Z,101936.03
2023-01-28T19:10:26.379Z,101942.94
2023-01-28T19:12:56.390Z,101948.91
2023-01-28T19:15:24.306Z,101942.00
2023-01-28T19:17:51.971Z,101948.06
2023-01-28T19:20:21.080Z,101945.34
2023-01-28T19:22:48.903Z,101938.38
2023-01-28T19:25:17.338Z,101942.47
2023-01-28T19:27:45.254Z,101939.00
2023-01-28T19:30:13.627Z,101946.28
2023-01-28T19:32:41.266Z,101949.91
2023-01-28T19:35:09.125Z,101955.88
2023-01-28T19:37:38.176Z,101954.84
2023-01-28T19:40:07.214Z,101954.63
2023-01-28T19:42:34.988Z,101953.69
2023-01-28T19:45:04.081Z,101953.69
2023-01-28T19:47:31.904Z,101965.28
2023-01-28T19:49:59.803Z,101971.53
2023-01-28T19:52:27.494Z,101958.19
2023-01-28T19:54:56.508Z,101964.81
2023-01-28T19:57:24.308Z,101968.06
2023-01-28T19:59:52.051Z,101967.13
2023-01-28T20:02:19.779Z,101953.38
2023-01-28T20:05:00.335Z,101966.84
2023-01-28T20:07:28.788Z,101979.03
2023-01-28T20:09:58.036Z,101973.09
2023-01-28T20:12:25.731Z,101972.25
2023-01-28T20:14:53.381Z,101967.59
2023-01-28T20:17:21.723Z,101960.56
2023-01-28T20:19:49.811Z,101960.34
2023-01-28T20:22:20.528Z,101961.28
2023-01-28T20:24:49.090Z,101963.91
2023-01-28T20:27:18.133Z,101966.66
2023-01-28T20:29:45.769Z,101971.78
2023-01-28T20:32:18.336Z,101972.56
2023-01-28T20:34:47.913Z,101974.09
2023-01-28T20:37:15.655Z,101974.97
2023-01-28T20:39:43.700Z,101971.78
2023-01-28T20:42:13.208Z,101978.03
2023-01-28T20:44:42.344Z,101979.59
2023-01-28T20:47:09.987Z,101972.56
2023-01-28T20:49:37.649Z,101985.84
2023-01-28T20:52:05.674Z,101983.16
2023-01-28T20:54:33.419Z,101988.63
2023-01-28T20:57:01.129Z,101989.88
2023-01-28T20:59:29.225Z,101983.31
2023-01-28T21:01:58.259Z,101980.91
2023-01-28T21:04:25.937Z,101987.16
2023-01-28T21:06:53.669Z,101988.72
2023-01-28T21:09:22.654Z,102003.66
2023-01-28T21:11:50.327Z,101995.66
2023-01-28T21:14:18.469Z,101992.97
2023-01-28T21:16:47.228Z,101999.06
2023-01-28T21:19:16.651Z,101986.31
2023-01-28T21:21:45.218Z,102008.34
2023-01-28T21:24:13.121Z,102008.56
2023-01-28T21:26:40.863Z,102005.09
2023-01-28T21:29:09.282Z,102005.94
2023-01-28T21:31:37.106Z,101999.84
2023-01-28T21:34:04.803Z,101987.69
2023-01-28T21:36:34.420Z,101988.59
2023-01-28T21:39:03.350Z,102002.78
2023-01-28T21:41:32.230Z,101995.44
2023-01-28T21:44:00.401Z,101993.00
2023-01-28T21:46:30.095Z,101986.91
2023-01-28T21:48:59.155Z,101981.66
2023-01-28T21:51:36.573Z,101991.22
2023-01-28T21:54:06.991Z,101980.28
2023-01-28T21:56:34.675Z,101992.50
2023-01-28T21:59:20.114Z,101984.59
2023-01-28T22:01:47.967Z,101978.75
2023-01-28T22:04:16.526Z,101974.53
2023-01-28T22:06:45.210Z,101973.63
2023-01-28T22:09:14.584Z,101982.50
2023-01-28T22:11:43.506Z,101975.31
2023-01-28T22:14:11.660Z,101964.47
2023-01-28T22:16:39.668Z,101969.59
2023-01-28T22:19:07.594Z,101962.19
2023-01-28T22:21:41.070Z,101968.06
2023-01-28T22:24:11.638Z,101970.53
2023-01-28T22:26:41.527Z,101951.34
2023-01-28T22:29:09.531Z,101952.38
2023-01-28T22:31:38.191Z,101952.44
2023-01-28T22:34:06.934Z,101950.88
2023-01-28T22:36:35.120Z,101941.38
2023-01-28T22:39:07.177Z,101947.34
2023-01-28T22:41:35.095Z,101949.97
2023-01-28T22:44:04.394Z,101948.44
2023-01-28T22:46:33.519Z,101944.84
2023-01-28T22:49:01.759Z,101943.16
2023-01-28T22:51:31.527Z,101938.06
2023-01-28T22:53:59.342Z,101939.13
2023-01-28T22:56:29.207Z,101943.31
2023-01-28T22:58:57.620Z,101955.47
2023-01-28T23:01:27.257Z,101953.81
2023-01-28T23:03:56.060Z,101955.47
2023-01-28T23:06:25.677Z,101954.38
2023-01-28T23:08:54.245Z,101950.41
2023-01-28T23:11:28.695Z,101951.81
2023-01-28T23:14:15.719Z,101950.94
2023-01-28T23:16:59.033Z,101958.94
2023-01-28T23:19:45.004Z,101957.38
2023-01-28T23:22:32.300Z,101953.75
2023-01-28T23:25:00.101Z,101959.94
2023-01-28T23:27:27.833Z,101953.97
2023-01-28T23:29:55.573Z,101946.00
2023-01-28T23:32:24.608Z,101950.41
2023-01-28T23:34:52.341Z,101953.34
2023-01-28T23:37:28.069Z,101959.84
2023-01-28T23:39:55.762Z,101954.47
2023-01-28T23:42:23.577Z,101959.97
2023-01-28T23:44:51.253Z,101948.59
2023-01-28T23:47:19.154Z,101956.63
2023-01-28T23:49:48.219Z,101952.09
2023-01-28T23:52:15.909Z,101947.91
2023-01-28T23:54:43.606Z,101947.75
2023-01-28T23:57:11.367Z,101942.50
2023-01-28T23:59:39.046Z,101942.84
